Time;durP1;ratioP1;P1;durP2;ratioP2;P2;SDS_P1;SDS_P2;PMS_P1;PMS_P2;Temp;Humidity;BMP_temperature;BMP_pressure;BME280_temperature;BME280_humidity;BME280_pressure;Samples;Min_cycle;Max_cycle;Signal;HPM_P1;HPM_P2
2021/10/26 00:00:12;;;;;;;;;12.25;12.25;;;;;-142.59;100.00;56100.38;5077189;28;57717;-73
2021/10/26 00:02:38;;;;;;;;;15.75;13.00;;;;;-142.59;100.00;56100.38;5075373;28;50421;-74
2021/10/26 00:05:04;;;;;;;;;11.75;11.25;;;;;-142.59;100.00;56100.38;5072302;28;55074;-74
2021/10/26 00:07:29;;;;;;;;;13.00;12.50;;;;;-142.59;100.00;56100.38;5073131;28;49867;-73
2021/10/26 00:09:55;;;;;;;;;14.25;12.00;;;;;-142.59;100.00;56100.38;5073423;28;50114;-74
2021/10/26 00:12:20;;;;;;;;;14.25;14.25;;;;;-142.59;100.00;56100.38;5072855;28;50457;-75
2021/10/26 00:14:46;;;;;;;;;10.75;10.75;;;;;-142.59;100.00;56100.38;5056605;28;49736;-74
2021/10/26 00:17:12;;;;;;;;;9.25;9.00;;;;;-142.59;100.00;56100.38;5073076;28;49887;-74
2021/10/26 00:19:37;;;;;;;;;10.75;9.50;;;;;-142.59;100.00;56100.38;5054344;28;54735;-75
2021/10/26 00:22:03;;;;;;;;;9.25;8.25;;;;;-142.59;100.00;56100.38;5072113;28;69751;-75
2021/10/26 00:24:28;;;;;;;;;11.00;11.00;;;;;-142.59;100.00;56100.38;5054521;28;49810;-76
2021/10/26 00:26:54;;;;;;;;;11.75;9.25;;;;;-142.59;100.00;56100.38;5073199;28;50096;-76
2021/10/26 00:29:19;;;;;;;;;9.50;9.00;;;;;-142.59;100.00;56100.38;5073463;28;51438;-75
2021/10/26 00:31:44;;;;;;;;;10.25;8.25;;;;;-142.59;100.00;56100.38;5072754;28;49535;-75
2021/10/26 00:34:10;;;;;;;;;10.25;10.25;;;;;-142.59;100.00;56100.38;5053579;28;70347;-74
2021/10/26 00:36:35;;;;;;;;;8.00;7.50;;;;;-142.59;100.00;56100.38;5040906;28;49683;-74
2021/10/26 00:39:01;;;;;;;;;8.00;6.25;;;;;-142.59;100.00;56100.38;5072105;28;59238;-74
2021/10/26 00:41:26;;;;;;;;;9.00;9.00;;;;;-142.59;100.00;56100.38;5058662;28;49943;-75
2021/10/26 00:43:52;;;;;;;;;10.00;10.00;;;;;-142.59;100.00;56100.38;5077043;28;49764;-74
2021/10/26 00:46:30;;;;;;;;;11.25;10.25;;;;;-142.59;100.00;56100.38;5073272;28;53241;-74
2021/10/26 00:48:57;;;;;;;;;11.00;8.50;;;;;-142.59;100.00;56100.38;5054352;28;49851;-74
2021/10/26 00:51:22;;;;;;;;;9.00;8.50;;;;;-142.59;100.00;56100.38;5072404;28;50471;-74
2021/10/26 00:53:48;;;;;;;;;11.75;6.25;;;;;-142.59;100.00;56100.38;5074240;28;49727;-73
2021/10/26 00:56:14;;;;;;;;;8.00;6.25;;;;;-142.59;100.00;56100.38;5058457;28;68772;-74
2021/10/26 00:58:39;;;;;;;;;9.25;8.25;;;;;-142.59;100.00;56100.38;5054634;28;49662;-74
2021/10/26 01:01:04;;;;;;;;;10.25;8.75;;;;;-142.59;100.00;56100.38;5054060;28;70341;-74
2021/10/26 01:03:30;;;;;;;;;9.75;9.75;;;;;-142.59;100.00;56100.38;5077441;28;64861;-74
2021/10/26 01:05:55;;;;;;;;;10.50;9.25;;;;;-142.59;100.00;56100.38;5072569;28;49715;-74
2021/10/26 01:08:21;;;;;;;;;8.00;8.00;;;;;-142.59;100.00;56100.38;5072581;28;49895;-74
2021/10/26 01:10:48;;;;;;;;;8.00;8.00;;;;;-142.59;100.00;56100.38;5072364;28;51673;-74
2021/10/26 01:13:13;;;;;;;;;8.75;8.75;;;;;-142.59;100.00;56100.38;5073418;28;49551;-74
2021/10/26 01:15:39;;;;;;;;;9.50;8.50;;;;;-142.59;100.00;56100.38;5075671;28;49881;-74
2021/10/26 01:18:04;;;;;;;;;8.00;6.50;;;;;-142.59;100.00;56100.38;5072343;28;49922;-74
2021/10/26 01:20:30;;;;;;;;;9.25;8.75;;;;;-142.59;100.00;56100.38;5053969;28;51647;-77
2021/10/26 01:22:55;;;;;;;;;8.00;7.25;;;;;-142.59;100.00;56100.38;5072633;28;54719;-75
2021/10/26 01:25:21;;;;;;;;;10.75;7.75;;;;;-142.59;100.00;56100.38;5073338;28;49659;-77
2021/10/26 01:27:48;;;;;;;;;8.50;6.25;;;;;-142.59;100.00;56100.38;5079415;28;49779;-77
2021/10/26 01:30:14;;;;;;;;;10.75;8.25;;;;;-142.59;100.00;56100.38;5078122;28;49804;-75
2021/10/26 01:32:39;;;;;;;;;7.50;7.50;;;;;-142.59;100.00;56100.38;5071849;28;49801;-75
2021/10/26 01:35:05;;;;;;;;;8.50;6.50;;;;;-142.59;100.00;56100.38;5072143;28;49856;-78
2021/10/26 01:37:31;;;;;;;;;6.75;6.75;;;;;-142.59;100.00;56100.38;5077184;28;49578;-74
2021/10/26 01:39:56;;;;;;;;;7.75;6.25;;;;;-142.59;100.00;56100.38;5075338;28;50767;-74
2021/10/26 01:42:22;;;;;;;;;7.25;7.25;;;;;-142.59;100.00;56100.38;5072018;28;49664;-75
2021/10/26 01:44:48;;;;;;;;;9.50;8.00;;;;;-142.59;100.00;56100.38;5053873;28;49559;-75
2021/10/26 01:47:13;;;;;;;;;6.00;6.00;;;;;-142.59;100.00;56100.38;5072101;28;49799;-74
2021/10/26 01:49:38;;;;;;;;;10.25;8.25;;;;;-142.59;100.00;56100.38;5071160;28;51033;-74
2021/10/26 01:52:04;;;;;;;;;9.75;7.75;;;;;-142.59;100.00;56100.38;5070777;28;69708;-74
2021/10/26 01:54:36;;;;;;;;;3.00;3.00;;;;;-142.59;100.00;56100.38;5053224;28;49795;-74
2021/10/26 01:57:02;;;;;;;;;5.00;4.00;;;;;-142.59;100.00;56100.38;5071474;28;50531;-74
2021/10/26 01:59:28;;;;;;;;;6.75;6.75;;;;;-142.59;100.00;56100.38;5019649;28;51726;-74
2021/10/26 02:01:53;;;;;;;;;5.00;5.00;;;;;-142.59;100.00;56100.38;5071384;28;49761;-74
2021/10/26 02:04:19;;;;;;;;;6.00;6.00;;;;;-142.59;100.00;56100.38;5064233;28;49908;-74
2021/10/26 02:06:44;;;;;;;;;7.50;7.00;;;;;-142.59;100.00;56100.38;5062896;28;49657;-74
2021/10/26 02:09:09;;;;;;;;;4.25;4.25;;;;;-142.59;100.00;56100.38;5051975;28;63915;-74
2021/10/26 02:11:36;;;;;;;;;4.00;4.00;;;;;-142.59;100.00;56100.38;5082397;28;60704;-75
2021/10/26 02:14:02;;;;;;;;;5.00;5.00;;;;;-142.59;100.00;56100.38;5053456;28;49810;-75
2021/10/26 02:16:27;;;;;;;;;5.75;4.50;;;;;-142.59;100.00;56100.38;5019704;28;49765;-75
2021/10/26 02:18:53;;;;;;;;;8.75;7.75;;;;;-142.59;100.00;56100.38;5069867;28;69786;-75
2021/10/26 02:21:19;;;;;;;;;4.25;4.25;;;;;-142.59;100.00;56100.38;5036254;28;49796;-75
2021/10/26 02:23:44;;;;;;;;;4.50;4.00;;;;;-142.59;100.00;56100.38;5052996;28;49868;-73
2021/10/26 02:26:10;;;;;;;;;4.00;4.00;;;;;-142.59;100.00;56100.38;5070450;28;54284;-74
2021/10/26 02:28:35;;;;;;;;;9.50;8.00;;;;;-142.59;100.00;56100.38;5035628;28;51129;-74
2021/10/26 02:31:01;;;;;;;;;4.50;4.50;;;;;-142.59;100.00;56100.38;5070007;28;68930;-75
2021/10/26 02:33:26;;;;;;;;;6.50;5.00;;;;;-142.59;100.00;56100.38;5035845;28;49703;-74
2021/10/26 02:35:51;;;;;;;;;3.50;3.50;;;;;-142.59;100.00;56100.38;5070571;28;49804;-75
2021/10/26 02:38:17;;;;;;;;;4.75;4.75;;;;;-142.59;100.00;56100.38;5035128;28;63640;-74
2021/10/26 02:40:42;;;;;;;;;4.75;3.75;;;;;-142.59;100.00;56100.38;5078285;28;49594;-74
2021/10/26 02:43:08;;;;;;;;;5.00;4.25;;;;;-142.59;100.00;56100.38;5072710;28;67324;-74
2021/10/26 02:45:33;;;;;;;;;7.50;7.50;;;;;-142.59;100.00;56100.38;5070356;28;61989;-74
2021/10/26 02:47:59;;;;;;;;;7.50;7.50;;;;;-142.59;100.00;56100.38;5054196;28;73284;-74
2021/10/26 02:50:25;;;;;;;;;6.00;6.00;;;;;-142.59;100.00;56100.38;5074528;28;49866;-74
2021/10/26 02:52:51;;;;;;;;;6.75;5.25;;;;;-142.59;100.00;56100.38;5070425;28;49672;-73
2021/10/26 02:55:16;;;;;;;;;6.50;4.75;;;;;-142.59;100.00;56100.38;5070650;28;50176;-73
2021/10/26 02:57:42;;;;;;;;;6.25;6.25;;;;;-142.59;100.00;56100.38;5061752;28;62862;-74
2021/10/26 03:00:09;;;;;;;;;8.00;5.25;;;;;-142.59;100.00;56100.38;5070906;28;49721;-74
2021/10/26 03:02:34;;;;;;;;;8.50;8.25;;;;;-142.59;100.00;56100.38;5078225;28;49588;-73
2021/10/26 03:05:00;;;;;;;;;6.75;5.50;;;;;-142.59;100.00;56100.38;5051759;28;49763;-74
2021/10/26 03:07:26;;;;;;;;;8.00;8.00;;;;;-142.59;100.00;56100.38;5070056;28;50670;-74
2021/10/26 03:09:51;;;;;;;;;10.00;9.00;;;;;-142.59;100.00;56100.38;5072108;28;49877;-73
2021/10/26 03:12:17;;;;;;;;;12.00;8.75;;;;;-142.59;100.00;56100.38;5075438;28;49635;-74
2021/10/26 03:14:42;;;;;;;;;7.75;6.50;;;;;-142.59;100.00;56100.38;5079894;28;49838;-74
2021/10/26 03:17:08;;;;;;;;;9.25;8.50;;;;;-142.59;100.00;56100.38;5073645;28;50234;-74
2021/10/26 03:19:33;;;;;;;;;7.50;7.50;;;;;-142.59;100.00;56100.38;5075071;28;49774;-75
2021/10/26 03:21:58;;;;;;;;;9.25;8.75;;;;;-142.59;100.00;56100.38;5077440;28;49675;-74
2021/10/26 03:24:24;;;;;;;;;7.25;7.25;;;;;-142.59;100.00;56100.38;5074590;28;49589;-75
2021/10/26 03:26:50;;;;;;;;;8.00;7.00;;;;;-142.59;100.00;56100.38;5061619;28;50645;-74
2021/10/26 03:29:15;;;;;;;;;7.50;7.00;;;;;-142.59;100.00;56100.38;5079837;28;49897;-74
2021/10/26 03:31:40;;;;;;;;;8.50;7.50;;;;;-142.59;100.00;56100.38;5073595;28;49736;-74
2021/10/26 03:34:06;;;;;;;;;10.50;8.50;;;;;-142.59;100.00;56100.38;5055375;28;50067;-74
2021/10/26 03:36:33;;;;;;;;;9.50;9.50;;;;;-142.59;100.00;56100.38;5073239;28;51076;-74
2021/10/26 03:38:59;;;;;;;;;8.00;7.00;;;;;-142.59;100.00;56100.38;5074996;28;49881;-75
2021/10/26 03:41:24;;;;;;;;;10.00;8.00;;;;;-142.59;100.00;56100.38;5073459;28;49861;-74
2021/10/26 03:43:50;;;;;;;;;9.00;9.00;;;;;-142.59;100.00;56100.38;5057327;28;49861;-74
2021/10/26 03:46:15;;;;;;;;;7.50;7.00;;;;;-142.59;100.00;56100.38;5073243;28;50429;-74
2021/10/26 03:48:41;;;;;;;;;7.00;6.50;;;;;-142.59;100.00;56100.38;5080664;28;49744;-75
2021/10/26 03:51:06;;;;;;;;;7.00;7.00;;;;;-142.59;100.00;56100.38;5083645;28;49770;-75
2021/10/26 03:53:32;;;;;;;;;7.50;7.50;;;;;-142.59;100.00;56100.38;5073461;28;49573;-75
2021/10/26 03:55:58;;;;;;;;;5.50;5.50;;;;;-142.59;100.00;56100.38;5073024;28;51552;-74
2021/10/26 03:58:24;;;;;;;;;9.00;6.00;;;;;-142.59;100.00;56100.38;5073162;28;49676;-73
2021/10/26 04:00:49;;;;;;;;;7.00;7.00;;;;;-142.59;100.00;56100.38;5055065;28;49677;-74
2021/10/26 04:03:15;;;;;;;;;5.25;5.25;;;;;-142.59;100.00;56100.38;5080197;28;57647;-74
2021/10/26 04:05:47;;;;;;;;;7.00;5.25;;;;;-142.59;100.00;56100.38;5074331;28;50444;-74
2021/10/26 04:08:23;;;;;;;;;5.50;4.75;;;;;-142.59;100.00;56100.38;5073398;28;49943;-74
2021/10/26 04:10:52;;;;;;;;;8.00;7.75;;;;;-142.59;100.00;56100.38;5075663;28;49738;-75
2021/10/26 04:13:20;;;;;;;;;7.00;7.00;;;;;-142.59;100.00;56100.38;5061781;28;49820;-74
2021/10/26 04:15:46;;;;;;;;;6.00;6.00;;;;;-142.59;100.00;56100.38;5073253;28;49819;-75
2021/10/26 04:18:11;;;;;;;;;8.00;7.00;;;;;-142.59;100.00;56100.38;5073034;28;49762;-75
2021/10/26 04:20:37;;;;;;;;;6.50;6.50;;;;;-142.59;100.00;56100.38;5072356;28;49697;-74
2021/10/26 04:23:02;;;;;;;;;6.00;6.00;;;;;-142.59;100.00;56100.38;5077912;28;49818;-75
2021/10/26 04:25:28;;;;;;;;;7.25;7.00;;;;;-142.59;100.00;56100.38;5072149;28;69820;-75
2021/10/26 04:27:54;;;;;;;;;9.00;9.00;;;;;-142.59;100.00;56100.38;5072488;28;49735;-75
2021/10/26 04:30:19;;;;;;;;;8.50;8.50;;;;;-142.59;100.00;56100.38;5073397;28;49672;-75
2021/10/26 04:32:45;;;;;;;;;11.25;11.00;;;;;-142.59;100.00;56100.38;5073085;28;49774;-75
2021/10/26 04:35:10;;;;;;;;;8.75;7.75;;;;;-142.59;100.00;56100.38;5072371;28;49858;-74
2021/10/26 04:37:36;;;;;;;;;8.00;8.00;;;;;-142.59;100.00;56100.38;5072496;28;49821;-74
2021/10/26 04:40:03;;;;;;;;;9.00;7.75;;;;;-142.59;100.00;56100.38;5072615;28;56187;-74
2021/10/26 04:42:28;;;;;;;;;8.00;8.00;;;;;-142.59;100.00;56100.38;5073248;28;49904;-74
2021/10/26 04:44:54;;;;;;;;;8.50;8.50;;;;;-142.59;100.00;56100.38;5073671;28;49651;-74
2021/10/26 04:47:22;;;;;;;;;7.50;6.00;;;;;-142.59;100.00;56100.38;5073104;28;49779;-74
2021/10/26 04:49:48;;;;;;;;;7.75;6.25;;;;;-142.59;100.00;56100.38;5062022;28;49564;-75
2021/10/26 04:52:14;;;;;;;;;7.25;7.00;;;;;-142.59;100.00;56100.38;5072608;28;49796;-74
2021/10/26 04:54:39;;;;;;;;;6.75;6.75;;;;;-142.59;100.00;56100.38;5053896;28;50752;-74
2021/10/26 04:57:05;;;;;;;;;6.25;6.25;;;;;-142.59;100.00;56100.38;5071449;28;70857;-74
2021/10/26 04:59:31;;;;;;;;;6.75;6.75;;;;;-142.59;100.00;56100.38;5074002;28;49655;-74
2021/10/26 05:01:56;;;;;;;;;9.50;7.00;;;;;-142.59;100.00;56100.38;5072799;28;50061;-73
2021/10/26 05:04:22;;;;;;;;;8.00;7.00;;;;;-142.59;100.00;56100.38;5071889;28;49640;-74
2021/10/26 05:06:47;;;;;;;;;10.00;8.00;;;;;-142.59;100.00;56100.38;5071352;28;65783;-74
2021/10/26 05:09:12;;;;;;;;;7.50;6.50;;;;;-142.59;100.00;56100.38;5054156;28;50033;-74
2021/10/26 05:11:38;;;;;;;;;10.50;8.75;;;;;-142.59;100.00;56100.38;5076276;28;49875;-74
2021/10/26 05:14:04;;;;;;;;;8.50;8.50;;;;;-142.59;100.00;56100.38;5071723;28;49727;-74
2021/10/26 05:16:29;;;;;;;;;10.00;8.00;;;;;-142.59;100.00;56100.38;5072182;28;49926;-74
2021/10/26 05:18:58;;;;;;;;;7.50;7.50;;;;;-142.59;100.00;56100.38;5071667;28;49773;-74
2021/10/26 05:21:24;;;;;;;;;8.75;8.00;;;;;-142.59;100.00;56100.38;5072852;28;49698;-75
2021/10/26 05:23:50;;;;;;;;;7.50;7.50;;;;;-142.59;100.00;56100.38;5075803;28;49843;-74
2021/10/26 05:26:16;;;;;;;;;9.00;8.75;;;;;-142.59;100.00;56100.38;5071780;28;49886;-75
2021/10/26 05:28:42;;;;;;;;;8.75;8.75;;;;;-142.59;100.00;56100.38;5075999;28;50520;-75
2021/10/26 05:31:08;;;;;;;;;8.00;8.00;;;;;-142.59;100.00;56100.38;5077611;28;49975;-74
2021/10/26 05:33:34;;;;;;;;;9.00;9.00;;;;;-142.59;100.00;56100.38;5061571;28;49951;-76
2021/10/26 05:36:00;;;;;;;;;8.75;8.75;;;;;-142.59;100.00;56100.38;5088523;28;49364;-71
2021/10/26 05:38:25;;;;;;;;;13.00;10.50;;;;;-142.59;100.00;56100.38;5087386;28;49552;-72
2021/10/26 05:40:51;;;;;;;;;11.75;9.00;;;;;-142.59;100.00;56100.38;5069498;28;49460;-70
2021/10/26 05:43:16;;;;;;;;;9.00;8.25;;;;;-142.59;100.00;56100.38;5067966;28;73190;-75
2021/10/26 05:45:45;;;;;;;;;13.50;11.75;;;;;-142.59;100.00;56100.38;5088679;28;49332;-73
2021/10/26 05:48:15;;;;;;;;;8.00;8.00;;;;;-142.59;100.00;56100.38;5088496;28;49762;-73
2021/10/26 05:50:40;;;;;;;;;9.00;9.00;;;;;-142.59;100.00;56100.38;5071321;28;49458;-72
2021/10/26 05:53:05;;;;;;;;;12.25;11.00;;;;;-142.59;100.00;56100.38;5088799;28;49651;-70
2021/10/26 05:55:31;;;;;;;;;13.00;10.50;;;;;-142.59;100.00;56100.38;5071099;28;65541;-68
2021/10/26 05:57:56;;;;;;;;;12.00;11.50;;;;;-142.59;100.00;56100.38;5089901;28;49611;-70
2021/10/26 06:00:25;;;;;;;;;9.25;9.25;;;;;-142.59;100.00;56100.38;5089390;28;49302;-68
2021/10/26 06:02:50;;;;;;;;;12.50;12.50;;;;;-142.59;100.00;56100.38;5088836;28;49929;-69
2021/10/26 06:05:16;;;;;;;;;14.25;13.25;;;;;-142.59;100.00;56100.38;5071587;27;67600;-74
2021/10/26 06:07:41;;;;;;;;;13.25;9.25;;;;;-142.59;100.00;56100.38;5071997;28;49869;-72
2021/10/26 06:10:08;;;;;;;;;16.00;12.00;;;;;-142.59;100.00;56100.38;5089362;28;49301;-69
2021/10/26 06:12:36;;;;;;;;;13.75;11.50;;;;;-142.59;100.00;56100.38;5086193;28;49881;-69
2021/10/26 06:15:01;;;;;;;;;13.25;10.50;;;;;-142.59;100.00;56100.38;5088885;28;49541;-69
2021/10/26 06:17:27;;;;;;;;;9.00;9.00;;;;;-142.59;100.00;56100.38;5087386;28;49314;-69
2021/10/26 06:19:53;;;;;;;;;11.75;9.25;;;;;-142.59;100.00;56100.38;5068724;28;49533;-70
2021/10/26 06:22:18;;;;;;;;;8.75;7.25;;;;;-142.59;100.00;56100.38;5084330;28;74820;-71
2021/10/26 06:24:46;;;;;;;;;11.00;8.25;;;;;-142.59;100.00;56100.38;5069766;28;49274;-70
2021/10/26 06:27:11;;;;;;;;;7.25;7.25;;;;;-142.59;100.00;56100.38;5087341;28;49908;-70
2021/10/26 06:29:36;;;;;;;;;12.50;7.50;;;;;-142.59;100.00;56100.38;5068914;28;49702;-69
2021/10/26 06:32:02;;;;;;;;;11.25;9.00;;;;;-142.59;100.00;56100.38;5085816;28;70762;-70
2021/10/26 06:34:27;;;;;;;;;7.75;7.75;;;;;-142.59;100.00;56100.38;5087804;28;49338;-69
2021/10/26 06:36:53;;;;;;;;;6.25;6.00;;;;;-142.59;100.00;56100.38;5069978;28;66694;-69
2021/10/26 06:39:21;;;;;;;;;12.50;10.50;;;;;-142.59;100.00;56100.38;5087076;28;49603;-70
2021/10/26 06:41:47;;;;;;;;;10.25;9.25;;;;;-142.59;100.00;56100.38;5067860;28;49684;-71
2021/10/26 06:44:15;;;;;;;;;9.25;8.25;;;;;-142.59;100.00;56100.38;5054766;28;49710;-70
2021/10/26 06:46:42;;;;;;;;;10.00;7.50;;;;;-142.59;100.00;56100.38;5069127;28;49942;-72
2021/10/26 06:49:07;;;;;;;;;10.00;9.25;;;;;-142.59;100.00;56100.38;5071387;28;49915;-74
2021/10/26 06:51:33;;;;;;;;;12.00;10.25;;;;;-142.59;100.00;56100.38;5023108;28;51313;-72
2021/10/26 06:53:58;;;;;;;;;12.50;12.50;;;;;-142.59;100.00;56100.38;5060968;28;49742;-74
2021/10/26 06:56:26;;;;;;;;;11.25;10.25;;;;;-142.59;100.00;56100.38;5068496;28;49464;-73
2021/10/26 06:58:51;;;;;;;;;11.00;10.50;;;;;-142.59;100.00;56100.38;5045070;28;49806;-72
2021/10/26 07:01:17;;;;;;;;;12.25;9.25;;;;;-142.59;100.00;56100.38;5065371;28;50294;-72
2021/10/26 07:03:43;;;;;;;;;11.75;10.50;;;;;-142.59;100.00;56100.38;5069795;27;50048;-70
2021/10/26 07:06:08;;;;;;;;;12.00;9.00;;;;;-142.59;100.00;56100.38;5084566;27;50091;-71
2021/10/26 07:08:34;;;;;;;;;4.00;2.50;;;;;-142.59;100.00;56100.38;5095288;27;50196;-76
2021/10/26 07:10:59;;;;;;;;;9.75;9.75;;;;;-142.59;100.00;56100.38;5061457;27;51702;-75
2021/10/26 07:13:25;;;;;;;;;13.75;13.75;;;;;-142.59;100.00;56100.38;5096715;27;49526;-75
2021/10/26 07:15:51;;;;;;;;;11.50;11.50;;;;;-142.59;100.00;56100.38;5039695;28;49887;-70
2021/10/26 07:18:16;;;;;;;;;11.25;11.25;;;;;-142.59;100.00;56100.38;5062607;28;49645;-71
2021/10/26 07:20:42;;;;;;;;;9.75;8.75;;;;;-142.59;100.00;56100.38;5079344;28;60918;-74
2021/10/26 07:23:07;;;;;;;;;11.00;9.00;;;;;-142.59;100.00;56100.38;5047164;28;49806;-74
2021/10/26 07:25:35;;;;;;;;;13.50;9.50;;;;;-142.59;100.00;56100.38;5069555;28;50268;-70
2021/10/26 07:28:01;;;;;;;;;11.75;9.00;;;;;-142.59;100.00;56100.38;5053695;28;49760;-69
2021/10/26 07:30:35;;;;;;;;;8.25;8.25;;;;;-142.59;100.00;56100.38;5085167;28;50234;-69
2021/10/26 07:33:02;;;;;;;;;10.75;8.25;;;;;-142.59;100.00;56100.38;5075477;28;49590;-71
2021/10/26 07:36:04;;;;;;;;;10.50;9.00;;;;;-142.59;100.00;56100.38;5052545;28;49807;-70
2021/10/26 07:38:31;;;;;;;;;15.75;13.25;;;;;-142.59;100.00;56100.38;5060004;28;49755;-71
2021/10/26 07:40:57;;;;;;;;;17.00;14.00;;;;;-142.59;100.00;56100.38;5069624;28;49850;-72
2021/10/26 07:43:22;;;;;;;;;9.50;8.25;;;;;-142.59;100.00;56100.38;5034778;28;49955;-71
2021/10/26 07:45:48;;;;;;;;;9.00;9.00;;;;;-142.59;100.00;56100.38;5067336;28;49800;-71
2021/10/26 07:48:13;;;;;;;;;8.50;8.50;;;;;-142.59;100.00;56100.38;5067940;28;51467;-71
2021/10/26 07:50:39;;;;;;;;;11.25;9.25;;;;;-142.59;100.00;56100.38;5069081;28;62995;-71
2021/10/26 07:53:05;;;;;;;;;13.00;11.25;;;;;-142.59;100.00;56100.38;5068860;28;49885;-71
2021/10/26 07:55:30;;;;;;;;;10.25;9.25;;;;;-142.59;100.00;56100.38;5051890;28;49990;-77
2021/10/26 07:57:56;;;;;;;;;13.75;10.25;;;;;-142.59;100.00;56100.38;5036232;28;49986;-74
2021/10/26 08:00:24;;;;;;;;;17.00;15.00;;;;;-142.59;100.00;56100.38;5071341;28;50696;-81
2021/10/26 08:02:50;;;;;;;;;13.25;12.00;;;;;-142.59;100.00;56100.38;5036746;28;49797;-73
2021/10/26 08:05:16;;;;;;;;;10.75;10.50;;;;;-142.59;100.00;56100.38;5051221;28;50026;-73
2021/10/26 08:07:41;;;;;;;;;10.25;10.25;;;;;-142.59;100.00;56100.38;5072044;27;49936;-75
2021/10/26 08:10:07;;;;;;;;;10.00;9.00;;;;;-142.59;100.00;56100.38;5053789;28;55621;-75
2021/10/26 08:12:32;;;;;;;;;10.50;10.25;;;;;-142.59;100.00;56100.38;5071333;27;50456;-76
2021/10/26 08:14:58;;;;;;;;;13.50;11.00;;;;;-142.59;100.00;56100.38;5072280;27;49788;-76
2021/10/26 08:17:24;;;;;;;;;13.00;11.25;;;;;-142.59;100.00;56100.38;5072537;28;49812;-76
2021/10/26 08:19:49;;;;;;;;;9.00;9.00;;;;;-142.59;100.00;56100.38;5073098;27;50851;-75
2021/10/26 08:22:19;;;;;;;;;9.50;9.25;;;;;-142.59;100.00;56100.38;5072409;28;49794;-69
2021/10/26 08:24:46;;;;;;;;;14.00;13.00;;;;;-142.59;100.00;56100.38;5073093;27;49701;-65
2021/10/26 08:27:15;;;;;;;;;18.25;15.75;;;;;-142.59;100.00;56100.38;5072826;27;49788;-73
2021/10/26 08:37:12;;;;;;;;;17.50;16.00;;;;;-142.59;100.00;56100.38;5056236;28;49813;-73
2021/10/26 08:39:38;;;;;;;;;17.00;16.00;;;;;-142.59;100.00;56100.38;5072553;27;50483;-74
2021/10/26 08:42:05;;;;;;;;;14.75;14.50;;;;;-142.59;100.00;56100.38;5072641;27;49648;-74
2021/10/26 08:44:30;;;;;;;;;19.25;15.25;;;;;-142.59;100.00;56100.38;5072934;27;49785;-74
2021/10/26 08:46:56;;;;;;;;;13.75;12.25;;;;;-142.59;100.00;56100.38;5054610;28;49819;-76
2021/10/26 08:49:22;;;;;;;;;16.75;15.25;;;;;-142.59;100.00;56100.38;5036367;28;72339;-77
2021/10/26 08:51:49;;;;;;;;;16.75;15.25;;;;;-142.59;100.00;56100.38;5053983;28;49847;-77
2021/10/26 08:54:15;;;;;;;;;18.50;17.50;;;;;-142.59;100.00;56100.38;5054534;28;49958;-76
2021/10/26 08:56:40;;;;;;;;;17.25;15.75;;;;;-142.59;100.00;56100.38;5054500;28;49827;-76
2021/10/26 08:59:06;;;;;;;;;17.75;17.00;;;;;-142.59;100.00;56100.38;5072488;28;50837;-76
2021/10/26 09:01:32;;;;;;;;;17.00;16.00;;;;;-142.59;100.00;56100.38;5072604;27;49639;-77
2021/10/26 09:04:10;;;;;;;;;16.75;15.50;;;;;-142.59;100.00;56100.38;5053662;28;49797;-76
2021/10/26 09:06:56;;;;;;;;;14.50;12.25;;;;;-142.59;100.00;56100.38;5052627;28;49930;-76
2021/10/26 09:09:23;;;;;;;;;16.75;14.75;;;;;-142.59;100.00;56100.38;5071158;28;50967;-75
2021/10/26 09:17:28;;;;;;;;;11.00;8.50;;;;;-142.59;100.00;56100.38;5042804;28;49854;-77
2021/10/26 09:19:54;;;;;;;;;11.50;10.00;;;;;-142.59;100.00;56100.38;5053633;28;50770;-75
2021/10/26 09:22:19;;;;;;;;;13.25;11.50;;;;;-142.59;100.00;56100.38;5072094;28;49714;-73
2021/10/26 09:24:59;;;;;;;;;9.50;9.50;;;;;-142.59;100.00;56100.38;5053303;28;55893;-73
2021/10/26 09:27:25;;;;;;;;;11.50;11.00;;;;;-142.59;100.00;56100.38;5053943;28;49579;-75
2021/10/26 09:29:52;;;;;;;;;8.25;8.25;;;;;-142.59;100.00;56100.38;5070938;28;50879;-73
2021/10/26 09:32:23;;;;;;;;;12.75;10.50;;;;;-142.59;100.00;56100.38;5072246;28;49825;-74
2021/10/26 09:34:55;;;;;;;;;13.50;11.50;;;;;-142.59;100.00;56100.38;5053425;28;49112;-74
2021/10/26 09:37:20;;;;;;;;;7.75;7.25;;;;;-142.59;100.00;56100.38;5071812;28;49906;-75
2021/10/26 09:39:56;;;;;;;;;6.00;6.00;;;;;-142.59;100.00;56100.38;5071575;28;50578;-74
2021/10/26 09:42:23;;;;;;;;;9.75;7.25;;;;;-142.59;100.00;56100.38;5073622;27;49704;-73
2021/10/26 09:44:50;;;;;;;;;9.50;7.75;;;;;-142.59;100.00;56100.38;5078673;27;49636;-75
2021/10/26 09:47:19;;;;;;;;;12.50;8.00;;;;;-142.59;100.00;56100.38;5053607;28;49808;-72
2021/10/26 09:49:52;;;;;;;;;10.00;9.00;;;;;-142.59;100.00;56100.38;5052548;28;50900;-73
2021/10/26 09:52:26;;;;;;;;;6.00;6.00;;;;;-142.59;100.00;56100.38;5048910;28;49937;-74
2021/10/26 09:55:22;;;;;;;;;8.75;7.00;;;;;-142.59;100.00;56100.38;5067652;28;50178;-73
2021/10/26 09:57:54;;;;;;;;;8.75;6.00;;;;;-142.59;100.00;56100.38;5043003;27;49910;-74
2021/10/26 10:00:34;;;;;;;;;7.50;6.75;;;;;-142.59;100.00;56100.38;5035162;27;50927;-73
2021/10/26 10:03:06;;;;;;;;;5.50;5.50;;;;;-142.59;100.00;56100.38;5049904;28;49860;-74
2021/10/26 10:05:37;;;;;;;;;5.25;5.25;;;;;-142.59;100.00;56100.38;5024818;28;49934;-74
2021/10/26 10:08:34;;;;;;;;;6.25;6.00;;;;;-142.59;100.00;56100.38;5050304;28;49764;-74
2021/10/26 10:11:06;;;;;;;;;7.50;7.25;;;;;-142.59;100.00;56100.38;5032865;28;50513;-75
2021/10/26 10:13:31;;;;;;;;;10.00;7.00;;;;;-142.59;100.00;56100.38;5051106;28;49617;-75
2021/10/26 10:15:57;;;;;;;;;5.25;4.75;;;;;-142.59;100.00;56100.38;5050907;28;49674;-75
2021/10/26 10:18:22;;;;;;;;;7.50;6.00;;;;;-142.59;100.00;56100.38;5050454;28;49600;-76
2021/10/26 10:20:49;;;;;;;;;8.25;5.50;;;;;-142.59;100.00;56100.38;5006394;28;51692;-78
2021/10/26 10:23:15;;;;;;;;;6.75;5.50;;;;;-142.59;100.00;56100.38;5032893;28;49886;-76
2021/10/26 10:25:42;;;;;;;;;5.50;5.50;;;;;-142.59;100.00;56100.38;5012339;28;49864;-75
2021/10/26 10:28:07;;;;;;;;;9.00;7.75;;;;;-142.59;100.00;56100.38;5015747;28;49791;-69
2021/10/26 10:30:33;;;;;;;;;9.00;8.00;;;;;-142.59;100.00;56100.38;5049958;28;49999;-68
2021/10/26 10:32:58;;;;;;;;;6.25;5.00;;;;;-142.59;100.00;56100.38;5015324;28;71774;-67
2021/10/26 10:35:25;;;;;;;;;5.25;4.75;;;;;-142.59;100.00;56100.38;5015762;28;50184;-68
2021/10/26 10:37:51;;;;;;;;;4.00;4.00;;;;;-142.59;100.00;56100.38;5032955;28;49797;-67
2021/10/26 10:40:22;;;;;;;;;7.25;4.75;;;;;-142.59;100.00;56100.38;5032333;28;50268;-68
2021/10/26 10:42:48;;;;;;;;;3.00;3.00;;;;;-142.59;100.00;56100.38;5032769;28;49754;-67
2021/10/26 10:45:25;;;;;;;;;5.25;4.50;;;;;-142.59;100.00;56100.38;5050119;28;49741;-68
2021/10/26 10:47:51;;;;;;;;;5.25;4.25;;;;;-142.59;100.00;56100.38;5050776;28;49668;-68
2021/10/26 10:50:20;;;;;;;;;4.00;4.00;;;;;-142.59;100.00;56100.38;5050032;28;50455;-67
2021/10/26 10:52:45;;;;;;;;;5.75;4.00;;;;;-142.59;100.00;56100.38;5050447;28;49719;-69
2021/10/26 10:55:22;;;;;;;;;4.50;3.75;;;;;-142.59;100.00;56100.38;5050340;28;49568;-66
2021/10/26 10:57:48;;;;;;;;;6.00;5.00;;;;;-142.59;100.00;56100.38;5033077;28;50047;-66
2021/10/26 11:00:25;;;;;;;;;2.00;2.00;;;;;-142.59;100.00;56100.38;5047644;28;70917;-64
2021/10/26 11:02:57;;;;;;;;;3.25;2.25;;;;;-142.59;100.00;56100.38;5016136;28;49702;-66
2021/10/26 11:05:38;;;;;;;;;7.25;6.00;;;;;-142.59;100.00;56100.38;5049451;28;49809;-68
2021/10/26 11:08:04;;;;;;;;;4.50;4.00;;;;;-142.59;100.00;56100.38;5069510;28;49597;-68
2021/10/26 11:10:48;;;;;;;;;6.00;4.75;;;;;-142.59;100.00;56100.38;5052339;28;50642;-68
2021/10/26 11:13:15;;;;;;;;;3.50;3.50;;;;;-142.59;100.00;56100.38;5070512;28;49647;-67
2021/10/26 11:15:42;;;;;;;;;3.75;3.25;;;;;-142.59;100.00;56100.38;5070521;28;49894;-67